sensor_id;sensor_type;location;lat;lon;timestamp;P1;durP1;ratioP1;P2;durP2;ratioP2
7969;SDS011;4030;52.362;9.206;2023-06-10T00:01:37;3.85;;;3.47;;
7969;SDS011;4030;52.362;9.206;2023-06-10T00:04:03;5.18;;;2.97;;
7969;SDS011;4030;52.362;9.206;2023-06-10T00:06:29;4.28;;;3.30;;
7969;SDS011;4030;52.362;9.206;2023-06-10T00:09:00;5.50;;;3.17;;
7969;SDS011;4030;52.362;9.206;2023-06-10T00:11:29;3.85;;;3.20;;
7969;SDS011;4030;52.362;9.206;2023-06-10T00:13:56;3.67;;;3.20;;
7969;SDS011;4030;52.362;9.206;2023-06-10T00:16:22;3.80;;;3.17;;
7969;SDS011;4030;52.362;9.206;2023-06-10T00:18:47;5.05;;;3.20;;
7969;SDS011;4030;52.362;9.206;2023-06-10T00:21:16;3.42;;;3.10;;
7969;SDS011;4030;52.362;9.206;2023-06-10T00:23:42;4.22;;;3.30;;
7969;SDS011;4030;52.362;9.206;2023-06-10T00:26:08;3.92;;;3.00;;
7969;SDS011;4030;52.362;9.206;2023-06-10T00:28:34;3.67;;;2.72;;
7969;SDS011;4030;52.362;9.206;2023-06-10T00:31:00;3.63;;;3.00;;
7969;SDS011;4030;52.362;9.206;2023-06-10T00:33:26;3.55;;;2.70;;
7969;SDS011;4030;52.362;9.206;2023-06-10T00:35:52;3.58;;;2.90;;
7969;SDS011;4030;52.362;9.206;2023-06-10T00:38:18;3.47;;;2.60;;
7969;SDS011;4030;52.362;9.206;2023-06-10T00:40:44;4.70;;;2.70;;
7969;SDS011;4030;52.362;9.206;2023-06-10T00:43:10;4.53;;;2.60;;
7969;SDS011;4030;52.362;9.206;2023-06-10T00:45:35;4.10;;;3.03;;
7969;SDS011;4030;52.362;9.206;2023-06-10T00:48:01;3.22;;;2.75;;
7969;SDS011;4030;52.362;9.206;2023-06-10T00:50:27;4.07;;;3.00;;
7969;SDS011;4030;52.362;9.206;2023-06-10T00:52:53;3.10;;;2.60;;
7969;SDS011;4030;52.362;9.206;2023-06-10T00:55:19;3.55;;;2.65;;
7969;SDS011;4030;52.362;9.206;2023-06-10T00:57:46;2.65;;;2.38;;
7969;SDS011;4030;52.362;9.206;2023-06-10T01:00:13;3.95;;;2.80;;
7969;SDS011;4030;52.362;9.206;2023-06-10T01:02:40;3.25;;;2.60;;
7969;SDS011;4030;52.362;9.206;2023-06-10T01:05:06;3.05;;;2.45;;
7969;SDS011;4030;52.362;9.206;2023-06-10T01:07:36;3.35;;;2.50;;
7969;SDS011;4030;52.362;9.206;2023-06-10T01:10:16;3.13;;;2.50;;
7969;SDS011;4030;52.362;9.206;2023-06-10T01:12:58;3.53;;;2.65;;
7969;SDS011;4030;52.362;9.206;2023-06-10T01:15:30;3.38;;;2.65;;
7969;SDS011;4030;52.362;9.206;2023-06-10T01:17:57;3.95;;;2.53;;
7969;SDS011;4030;52.362;9.206;2023-06-10T01:20:27;4.47;;;2.70;;
7969;SDS011;4030;52.362;9.206;2023-06-10T01:22:57;4.40;;;2.53;;
7969;SDS011;4030;52.362;9.206;2023-06-10T01:25:25;4.55;;;2.45;;
7969;SDS011;4030;52.362;9.206;2023-06-10T01:33:25;3.55;;;2.60;;
7969;SDS011;4030;52.362;9.206;2023-06-10T01:35:56;3.10;;;2.40;;
7969;SDS011;4030;52.362;9.206;2023-06-10T01:38:24;3.97;;;2.60;;
7969;SDS011;4030;52.362;9.206;2023-06-10T01:40:55;3.00;;;2.55;;
7969;SDS011;4030;52.362;9.206;2023-06-10T01:43:21;2.78;;;2.47;;
7969;SDS011;4030;52.362;9.206;2023-06-10T01:45:47;3.33;;;2.20;;
7969;SDS011;4030;52.362;9.206;2023-06-10T01:48:13;3.30;;;2.40;;
7969;SDS011;4030;52.362;9.206;2023-06-10T01:50:38;4.88;;;2.70;;
7969;SDS011;4030;52.362;9.206;2023-06-10T01:53:04;3.38;;;2.38;;
7969;SDS011;4030;52.362;9.206;2023-06-10T01:55:30;3.92;;;2.47;;
7969;SDS011;4030;52.362;9.206;2023-06-10T01:57:56;3.53;;;2.33;;
7969;SDS011;4030;52.362;9.206;2023-06-10T02:00:22;3.95;;;2.58;;
7969;SDS011;4030;52.362;9.206;2023-06-10T02:02:47;3.08;;;2.35;;
7969;SDS011;4030;52.362;9.206;2023-06-10T02:05:13;3.60;;;2.40;;
7969;SDS011;4030;52.362;9.206;2023-06-10T02:07:39;3.55;;;2.33;;
7969;SDS011;4030;52.362;9.206;2023-06-10T02:10:05;2.78;;;2.08;;
7969;SDS011;4030;52.362;9.206;2023-06-10T02:12:32;3.67;;;2.35;;
7969;SDS011;4030;52.362;9.206;2023-06-10T02:14:57;3.20;;;2.38;;
7969;SDS011;4030;52.362;9.206;2023-06-10T02:17:23;3.50;;;2.20;;
7969;SDS011;4030;52.362;9.206;2023-06-10T02:19:49;2.88;;;2.47;;
7969;SDS011;4030;52.362;9.206;2023-06-10T02:22:20;2.95;;;2.30;;
7969;SDS011;4030;52.362;9.206;2023-06-10T02:24:47;2.75;;;2.10;;
7969;SDS011;4030;52.362;9.206;2023-06-10T02:27:14;3.97;;;2.75;;
7969;SDS011;4030;52.362;9.206;2023-06-10T02:29:40;3.88;;;2.50;;
7969;SDS011;4030;52.362;9.206;2023-06-10T02:32:07;4.13;;;2.58;;
7969;SDS011;4030;52.362;9.206;2023-06-10T02:34:33;4.30;;;2.55;;
7969;SDS011;4030;52.362;9.206;2023-06-10T02:36:59;3.50;;;2.42;;
7969;SDS011;4030;52.362;9.206;2023-06-10T02:39:25;3.20;;;2.63;;
7969;SDS011;4030;52.362;9.206;2023-06-10T02:41:53;3.58;;;2.35;;
7969;SDS011;4030;52.362;9.206;2023-06-10T02:44:19;3.17;;;2.58;;
7969;SDS011;4030;52.362;9.206;2023-06-10T02:46:45;3.50;;;2.30;;
7969;SDS011;4030;52.362;9.206;2023-06-10T02:49:11;3.60;;;2.65;;
7969;SDS011;4030;52.362;9.206;2023-06-10T02:51:37;4.32;;;2.80;;
7969;SDS011;4030;52.362;9.206;2023-06-10T02:54:03;2.90;;;2.40;;
7969;SDS011;4030;52.362;9.206;2023-06-10T02:56:30;3.40;;;2.42;;
7969;SDS011;4030;52.362;9.206;2023-06-10T02:58:56;4.00;;;2.80;;
7969;SDS011;4030;52.362;9.206;2023-06-10T03:01:22;4.47;;;2.70;;
7969;SDS011;4030;52.362;9.206;2023-06-10T03:03:48;3.92;;;2.60;;
7969;SDS011;4030;52.362;9.206;2023-06-10T03:06:15;3.35;;;2.80;;
7969;SDS011;4030;52.362;9.206;2023-06-10T03:08:41;4.53;;;2.90;;
7969;SDS011;4030;52.362;9.206;2023-06-10T03:11:07;3.50;;;2.72;;
7969;SDS011;4030;52.362;9.206;2023-06-10T03:13:33;3.80;;;2.80;;
7969;SDS011;4030;52.362;9.206;2023-06-10T03:15:59;3.10;;;2.42;;
7969;SDS011;4030;52.362;9.206;2023-06-10T03:18:25;4.68;;;2.88;;
7969;SDS011;4030;52.362;9.206;2023-06-10T03:20:52;3.58;;;2.78;;
7969;SDS011;4030;52.362;9.206;2023-06-10T03:23:20;4.20;;;2.83;;
7969;SDS011;4030;52.362;9.206;2023-06-10T03:25:46;3.45;;;2.80;;
7969;SDS011;4030;52.362;9.206;2023-06-10T03:28:12;3.47;;;2.80;;
7969;SDS011;4030;52.362;9.206;2023-06-10T03:30:37;4.55;;;2.78;;
7969;SDS011;4030;52.362;9.206;2023-06-10T03:33:03;5.03;;;3.00;;
7969;SDS011;4030;52.362;9.206;2023-06-10T03:35:32;4.22;;;2.70;;
7969;SDS011;4030;52.362;9.206;2023-06-10T03:37:58;4.28;;;2.90;;
7969;SDS011;4030;52.362;9.206;2023-06-10T03:40:24;4.65;;;2.90;;
7969;SDS011;4030;52.362;9.206;2023-06-10T03:42:49;8.20;;;2.80;;
7969;SDS011;4030;52.362;9.206;2023-06-10T03:45:15;6.03;;;3.10;;
7969;SDS011;4030;52.362;9.206;2023-06-10T03:47:41;3.95;;;2.58;;
7969;SDS011;4030;52.362;9.206;2023-06-10T03:50:07;3.90;;;2.80;;
7969;SDS011;4030;52.362;9.206;2023-06-10T03:52:35;5.18;;;2.90;;
7969;SDS011;4030;52.362;9.206;2023-06-10T03:55:01;4.80;;;2.80;;
7969;SDS011;4030;52.362;9.206;2023-06-10T03:57:27;3.85;;;2.72;;
7969;SDS011;4030;52.362;9.206;2023-06-10T03:59:53;4.70;;;2.78;;
7969;SDS011;4030;52.362;9.206;2023-06-10T04:02:19;4.22;;;2.85;;
7969;SDS011;4030;52.362;9.206;2023-06-10T04:04:44;5.13;;;3.00;;
7969;SDS011;4030;52.362;9.206;2023-06-10T04:07:10;3.53;;;2.80;;
7969;SDS011;4030;52.362;9.206;2023-06-10T04:09:37;4.60;;;2.92;;
7969;SDS011;4030;52.362;9.206;2023-06-10T04:12:03;5.22;;;2.92;;
7969;SDS011;4030;52.362;9.206;2023-06-10T04:14:31;4.10;;;2.85;;
7969;SDS011;4030;52.362;9.206;2023-06-10T04:16:56;4.70;;;3.00;;
7969;SDS011;4030;52.362;9.206;2023-06-10T04:19:22;3.78;;;2.90;;
7969;SDS011;4030;52.362;9.206;2023-06-10T04:21:48;4.43;;;2.80;;
7969;SDS011;4030;52.362;9.206;2023-06-10T04:24:13;4.57;;;2.58;;
7969;SDS011;4030;52.362;9.206;2023-06-10T04:26:39;5.28;;;2.83;;
7969;SDS011;4030;52.362;9.206;2023-06-10T04:29:05;3.78;;;2.70;;
7969;SDS011;4030;52.362;9.206;2023-06-10T04:31:30;4.03;;;2.63;;
7969;SDS011;4030;52.362;9.206;2023-06-10T04:33:57;4.18;;;2.83;;
7969;SDS011;4030;52.362;9.206;2023-06-10T04:36:23;4.63;;;2.90;;
7969;SDS011;4030;52.362;9.206;2023-06-10T04:38:48;4.32;;;2.70;;
7969;SDS011;4030;52.362;9.206;2023-06-10T04:41:14;4.93;;;3.10;;
7969;SDS011;4030;52.362;9.206;2023-06-10T04:43:40;3.45;;;2.65;;
7969;SDS011;4030;52.362;9.206;2023-06-10T04:46:05;5.15;;;2.85;;
7969;SDS011;4030;52.362;9.206;2023-06-10T04:48:31;4.78;;;2.78;;
7969;SDS011;4030;52.362;9.206;2023-06-10T04:51:00;3.85;;;2.80;;
7969;SDS011;4030;52.362;9.206;2023-06-10T04:53:25;3.80;;;2.58;;
7969;SDS011;4030;52.362;9.206;2023-06-10T04:55:53;4.93;;;2.70;;
7969;SDS011;4030;52.362;9.206;2023-06-10T04:58:19;4.25;;;2.70;;
7969;SDS011;4030;52.362;9.206;2023-06-10T05:00:45;3.97;;;2.80;;
7969;SDS011;4030;52.362;9.206;2023-06-10T05:03:10;4.40;;;3.08;;
7969;SDS011;4030;52.362;9.206;2023-06-10T05:05:36;4.13;;;2.88;;
7969;SDS011;4030;52.362;9.206;2023-06-10T05:08:02;4.13;;;2.88;;
7969;SDS011;4030;52.362;9.206;2023-06-10T05:10:27;4.38;;;2.85;;
7969;SDS011;4030;52.362;9.206;2023-06-10T05:12:56;4.88;;;3.00;;
7969;SDS011;4030;52.362;9.206;2023-06-10T05:15:23;5.15;;;2.97;;
7969;SDS011;4030;52.362;9.206;2023-06-10T05:17:49;3.80;;;2.92;;
7969;SDS011;4030;52.362;9.206;2023-06-10T05:20:15;4.45;;;3.22;;
7969;SDS011;4030;52.362;9.206;2023-06-10T05:22:41;4.68;;;3.15;;
7969;SDS011;4030;52.362;9.206;2023-06-10T05:25:07;4.68;;;3.28;;
7969;SDS011;4030;52.362;9.206;2023-06-10T05:27:33;5.38;;;3.40;;
7969;SDS011;4030;52.362;9.206;2023-06-10T05:29:58;4.72;;;3.35;;
7969;SDS011;4030;52.362;9.206;2023-06-10T05:32:24;4.65;;;3.60;;
7969;SDS011;4030;52.362;9.206;2023-06-10T05:34:50;4.80;;;3.72;;
7969;SDS011;4030;52.362;9.206;2023-06-10T05:37:15;5.53;;;3.60;;
7969;SDS011;4030;52.362;9.206;2023-06-10T05:39:41;7.28;;;3.85;;
7969;SDS011;4030;52.362;9.206;2023-06-10T05:42:07;6.47;;;4.00;;
7969;SDS011;4030;52.362;9.206;2023-06-10T05:44:33;5.65;;;3.78;;
7969;SDS011;4030;52.362;9.206;2023-06-10T05:46:59;6.75;;;4.05;;
7969;SDS011;4030;52.362;9.206;2023-06-10T05:49:25;7.00;;;4.40;;
7969;SDS011;4030;52.362;9.206;2023-06-10T05:51:50;5.88;;;4.30;;
7969;SDS011;4030;52.362;9.206;2023-06-10T05:54:17;4.97;;;4.25;;
7969;SDS011;4030;52.362;9.206;2023-06-10T05:56:43;5.70;;;4.50;;
7969;SDS011;4030;52.362;9.206;2023-06-10T05:59:09;6.45;;;4.70;;
7969;SDS011;4030;52.362;9.206;2023-06-10T06:01:35;6.47;;;5.20;;
7969;SDS011;4030;52.362;9.206;2023-06-10T06:04:01;5.35;;;4.72;;
7969;SDS011;4030;52.362;9.206;2023-06-10T06:06:26;5.63;;;4.80;;
7969;SDS011;4030;52.362;9.206;2023-06-10T06:08:52;6.78;;;4.85;;
7969;SDS011;4030;52.362;9.206;2023-06-10T06:11:17;7.43;;;5.63;;
7969;SDS011;4030;52.362;9.206;2023-06-10T06:13:43;6.53;;;4.97;;
7969;SDS011;4030;52.362;9.206;2023-06-10T06:16:09;6.72;;;5.40;;
7969;SDS011;4030;52.362;9.206;2023-06-10T06:18:34;7.15;;;5.10;;
7969;SDS011;4030;52.362;9.206;2023-06-10T06:21:00;6.13;;;5.13;;
7969;SDS011;4030;52.362;9.206;2023-06-10T06:23:26;7.07;;;5.53;;
7969;SDS011;4030;52.362;9.206;2023-06-10T06:25:52;6.93;;;5.50;;
7969;SDS011;4030;52.362;9.206;2023-06-10T06:28:17;6.70;;;5.30;;
7969;SDS011;4030;52.362;9.206;2023-06-10T06:30:45;8.57;;;5.38;;
7969;SDS011;4030;52.362;9.206;2023-06-10T06:33:11;5.60;;;4.72;;
7969;SDS011;4030;52.362;9.206;2023-06-10T06:35:38;7.82;;;4.93;;
7969;SDS011;4030;52.362;9.206;2023-06-10T06:38:03;6.30;;;4.75;;
7969;SDS011;4030;52.362;9.206;2023-06-10T06:40:29;6.13;;;4.75;;
7969;SDS011;4030;52.362;9.206;2023-06-10T06:42:55;7.10;;;4.65;;
7969;SDS011;4030;52.362;9.206;2023-06-10T06:45:21;6.68;;;4.70;;
7969;SDS011;4030;52.362;9.206;2023-06-10T06:47:46;6.70;;;4.43;;
7969;SDS011;4030;52.362;9.206;2023-06-10T06:50:12;6.28;;;4.47;;
7969;SDS011;4030;52.362;9.206;2023-06-10T06:52:38;5.25;;;3.97;;
7969;SDS011;4030;52.362;9.206;2023-06-10T06:55:03;4.82;;;4.18;;
7969;SDS011;4030;52.362;9.206;2023-06-10T06:57:30;5.85;;;4.10;;
7969;SDS011;4030;52.362;9.206;2023-06-10T06:59:55;5.47;;;3.88;;
7969;SDS011;4030;52.362;9.206;2023-06-10T07:02:21;5.15;;;4.10;;
7969;SDS011;4030;52.362;9.206;2023-06-10T07:04:47;4.65;;;3.83;;
7969;SDS011;4030;52.362;9.206;2023-06-10T07:07:14;5.47;;;3.75;;
7969;SDS011;4030;52.362;9.206;2023-06-10T07:09:40;5.03;;;3.80;;
7969;SDS011;4030;52.362;9.206;2023-06-10T07:12:06;5.28;;;3.60;;
7969;SDS011;4030;52.362;9.206;2023-06-10T07:14:32;5.40;;;3.70;;
7969;SDS011;4030;52.362;9.206;2023-06-10T07:16:58;4.00;;;3.60;;
7969;SDS011;4030;52.362;9.206;2023-06-10T07:19:23;6.15;;;3.72;;
7969;SDS011;4030;52.362;9.206;2023-06-10T07:21:49;6.00;;;3.90;;
7969;SDS011;4030;52.362;9.206;2023-06-10T07:24:15;5.75;;;3.97;;
7969;SDS011;4030;52.362;9.206;2023-06-10T07:26:40;5.05;;;3.70;;
7969;SDS011;4030;52.362;9.206;2023-06-10T07:29:06;5.28;;;3.90;;
7969;SDS011;4030;52.362;9.206;2023-06-10T07:31:32;5.40;;;3.53;;
7969;SDS011;4030;52.362;9.206;2023-06-10T07:33:57;4.25;;;3.47;;
7969;SDS011;4030;52.362;9.206;2023-06-10T07:36:23;4.95;;;3.97;;
7969;SDS011;4030;52.362;9.206;2023-06-10T07:38:52;4.82;;;3.40;;
7969;SDS011;4030;52.362;9.206;2023-06-10T07:41:18;4.32;;;3.30;;
7969;SDS011;4030;52.362;9.206;2023-06-10T07:43:44;5.35;;;3.97;;
7969;SDS011;4030;52.362;9.206;2023-06-10T07:46:10;4.60;;;3.50;;
7969;SDS011;4030;52.362;9.206;2023-06-10T07:48:35;5.07;;;3.63;;
7969;SDS011;4030;52.362;9.206;2023-06-10T07:51:01;3.97;;;3.33;;
7969;SDS011;4030;52.362;9.206;2023-06-10T07:53:27;4.65;;;3.28;;
7969;SDS011;4030;52.362;9.206;2023-06-10T07:55:53;3.60;;;2.97;;
7969;SDS011;4030;52.362;9.206;2023-06-10T07:58:18;4.53;;;3.22;;
7969;SDS011;4030;52.362;9.206;2023-06-10T08:00:46;4.93;;;3.30;;
7969;SDS011;4030;52.362;9.206;2023-06-10T08:03:12;4.88;;;3.20;;
7969;SDS011;4030;52.362;9.206;2023-06-10T08:05:39;4.70;;;3.30;;
7969;SDS011;4030;52.362;9.206;2023-06-10T08:08:05;4.78;;;3.72;;
7969;SDS011;4030;52.362;9.206;2023-06-10T08:10:30;6.32;;;4.22;;
7969;SDS011;4030;52.362;9.206;2023-06-10T08:12:56;7.38;;;3.65;;
7969;SDS011;4030;52.362;9.206;2023-06-10T08:15:22;5.65;;;3.90;;
7969;SDS011;4030;52.362;9.206;2023-06-10T08:17:48;5.38;;;4.00;;
7969;SDS011;4030;52.362;9.206;2023-06-10T08:20:13;5.47;;;4.22;;
7969;SDS011;4030;52.362;9.206;2023-06-10T08:22:39;8.10;;;4.38;;
7969;SDS011;4030;52.362;9.206;2023-06-10T08:25:05;10.35;;;4.85;;
7969;SDS011;4030;52.362;9.206;2023-06-10T08:27:31;7.28;;;4.65;;
7969;SDS011;4030;52.362;9.206;2023-06-10T08:29:57;10.10;;;4.90;;
7969;SDS011;4030;52.362;9.206;2023-06-10T08:32:24;8.05;;;4.55;;
7969;SDS011;4030;52.362;9.206;2023-06-10T08:34:50;7.18;;;4.60;;
7969;SDS011;4030;52.362;9.206;2023-06-10T08:37:15;6.55;;;4.72;;
7969;SDS011;4030;52.362;9.206;2023-06-10T08:39:41;7.47;;;4.55;;
7969;SDS011;4030;52.362;9.206;2023-06-10T08:42:11;10.38;;;4.75;;
7969;SDS011;4030;52.362;9.206;2023-06-10T08:44:55;7.32;;;4.20;;
7969;SDS011;4030;52.362;9.206;2023-06-10T08:47:22;6.47;;;4.43;;
7969;SDS011;4030;52.362;9.206;2023-06-10T08:49:49;8.75;;;4.53;;
7969;SDS011;4030;52.362;9.206;2023-06-10T08:52:16;7.60;;;4.00;;
7969;SDS011;4030;52.362;9.206;2023-06-10T08:54:59;6.97;;;4.18;;
7969;SDS011;4030;52.362;9.206;2023-06-10T08:57:36;7.47;;;4.30;;
7969;SDS011;4030;52.362;9.206;2023-06-10T09:00:02;8.25;;;4.32;;
7969;SDS011;4030;52.362;9.206;2023-06-10T09:02:30;7.85;;;4.03;;
7969;SDS011;4030;52.362;9.206;2023-06-10T09:05:00;5.88;;;3.85;;
7969;SDS011;4030;52.362;9.206;2023-06-10T09:07:27;7.07;;;3.95;;
7969;SDS011;4030;52.362;9.206;2023-06-10T09:09:56;7.20;;;3.88;;
7969;SDS011;4030;52.362;9.206;2023-06-10T09:12:24;6.32;;;4.15;;
7969;SDS011;4030;52.362;9.206;2023-06-10T09:14:49;5.10;;;3.63;;
7969;SDS011;4030;52.362;9.206;2023-06-10T09:17:16;6.43;;;4.25;;
7969;SDS011;4030;52.362;9.206;2023-06-10T09:19:42;5.05;;;3.70;;
7969;SDS011;4030;52.362;9.206;2023-06-10T09:22:09;6.68;;;4.20;;
7969;SDS011;4030;52.362;9.206;2023-06-10T09:24:35;8.55;;;3.97;;
7969;SDS011;4030;52.362;9.206;2023-06-10T09:27:02;6.70;;;4.35;;
7969;SDS011;4030;52.362;9.206;2023-06-10T09:29:44;5.32;;;3.65;;
7969;SDS011;4030;52.362;9.206;2023-06-10T09:32:20;4.63;;;3.45;;
7969;SDS011;4030;52.362;9.206;2023-06-10T09:34:46;7.85;;;3.90;;
7969;SDS011;4030;52.362;9.206;2023-06-10T09:37:13;5.03;;;3.92;;
7969;SDS011;4030;52.362;9.206;2023-06-10T09:39:52;5.20;;;3.85;;
7969;SDS011;4030;52.362;9.206;2023-06-10T09:42:33;7.65;;;4.30;;
7969;SDS011;4030;52.362;9.206;2023-06-10T09:45:04;5.18;;;3.33;;
7969;SDS011;4030;52.362;9.206;2023-06-10T09:47:31;5.75;;;3.70;;
7969;SDS011;4030;52.362;9.206;2023-06-10T09:49:57;4.80;;;3.78;;
7969;SDS011;4030;52.362;9.206;2023-06-10T09:52:23;7.95;;;4.00;;
7969;SDS011;4030;52.362;9.206;2023-06-10T09:54:51;4.82;;;3.85;;
7969;SDS011;4030;52.362;9.206;2023-06-10T09:57:25;5.60;;;3.38;;
7969;SDS011;4030;52.362;9.206;2023-06-10T09:59:57;5.10;;;3.40;;
7969;SDS011;4030;52.362;9.206;2023-06-10T10:02:23;4.55;;;3.92;;
7969;SDS011;4030;52.362;9.206;2023-06-10T10:04:48;4.40;;;3.55;;
7969;SDS011;4030;52.362;9.206;2023-06-10T10:07:14;5.07;;;3.65;;
7969;SDS011;4030;52.362;9.206;2023-06-10T10:09:40;4.22;;;3.70;;
7969;SDS011;4030;52.362;9.206;2023-06-10T10:12:10;4.60;;;3.67;;
7969;SDS011;4030;52.362;9.206;2023-06-10T10:14:38;5.18;;;3.78;;
7969;SDS011;4030;52.362;9.206;2023-06-10T10:17:10;4.57;;;3.60;;
7969;SDS011;4030;52.362;9.206;2023-06-10T10:19:38;4.60;;;3.47;;
7969;SDS011;4030;52.362;9.206;2023-06-10T10:22:15;4.55;;;3.65;;
7969;SDS011;4030;52.362;9.206;2023-06-10T10:25:04;4.85;;;4.00;;
7969;SDS011;4030;52.362;9.206;2023-06-10T10:27:40;4.68;;;3.50;;
7969;SDS011;4030;52.362;9.206;2023-06-10T10:30:13;5.88;;;3.55;;
7969;SDS011;4030;52.362;9.206;2023-06-10T10:32:43;5.10;;;3.42;;
7969;SDS011;4030;52.362;9.206;2023-06-10T10:35:18;3.65;;;3.10;;
7969;SDS011;4030;52.362;9.206;2023-06-10T10:37:48;4.53;;;3.33;;
7969;SDS011;4030;52.362;9.206;2023-06-10T10:40:15;4.55;;;3.63;;
7969;SDS011;4030;52.362;9.206;2023-06-10T10:42:41;4.00;;;3.10;;
7969;SDS011;4030;52.362;9.206;2023-06-10T10:45:08;5.43;;;3.40;;
7969;SDS011;4030;52.362;9.206;2023-06-10T10:47:34;4.38;;;3.08;;
7969;SDS011;4030;52.362;9.206;2023-06-10T10:50:03;5.35;;;3.25;;
7969;SDS011;4030;52.362;9.206;2023-06-10T10:53:01;4.90;;;3.03;;
7969;SDS011;4030;52.362;9.206;2023-06-10T10:55:29;4.82;;;3.40;;
7969;SDS011;4030;52.362;9.206;2023-06-10T10:57:56;3.50;;;3.20;;
7969;SDS011;4030;52.362;9.206;2023-06-10T11:03:13;6.10;;;3.20;;
7969;SDS011;4030;52.362;9.206;2023-06-10T11:05:44;4.80;;;3.20;;
7969;SDS011;4030;52.362;9.206;2023-06-10T11:08:14;5.38;;;3.47;;
7969;SDS011;4030;52.362;9.206;2023-06-10T11:10:41;3.60;;;3.00;;
7969;SDS011;4030;52.362;9.206;2023-06-10T11:13:18;3.88;;;2.95;;
7969;SDS011;4030;52.362;9.206;2023-06-10T11:15:46;4.65;;;3.13;;
7969;SDS011;4030;52.362;9.206;2023-06-10T11:18:24;5.03;;;3.15;;
7969;SDS011;4030;52.362;9.206;2023-06-10T11:21:04;4.10;;;3.17;;
7969;SDS011;4030;52.362;9.206;2023-06-10T11:23:32;3.92;;;3.10;;
7969;SDS011;4030;52.362;9.206;2023-06-10T11:31:25;4.35;;;2.75;;
7969;SDS011;4030;52.362;9.206;2023-06-10T11:34:00;4.40;;;3.25;;
7969;SDS011;4030;52.362;9.206;2023-06-10T11:36:31;4.10;;;2.75;;
7969;SDS011;4030;52.362;9.206;2023-06-10T11:39:01;5.07;;;3.15;;
7969;SDS011;4030;52.362;9.206;2023-06-10T11:41:29;4.43;;;3.00;;
7969;SDS011;4030;52.362;9.206;2023-06-10T11:43:58;3.13;;;2.80;;
7969;SDS011;4030;52.362;9.206;2023-06-10T11:46:35;2.92;;;2.70;;
7969;SDS011;4030;52.362;9.206;2023-06-10T11:49:00;3.58;;;2.90;;
7969;SDS011;4030;52.362;9.206;2023-06-10T11:51:34;4.75;;;3.20;;
7969;SDS011;4030;52.362;9.206;2023-06-10T11:54:05;3.92;;;2.80;;
7969;SDS011;4030;52.362;9.206;2023-06-10T11:56:33;4.30;;;2.97;;
7969;SDS011;4030;52.362;9.206;2023-06-10T11:59:01;3.33;;;2.80;;
7969;SDS011;4030;52.362;9.206;2023-06-10T12:01:32;4.32;;;3.00;;
7969;SDS011;4030;52.362;9.206;2023-06-10T12:04:08;4.32;;;2.85;;
7969;SDS011;4030;52.362;9.206;2023-06-10T12:06:50;3.88;;;2.85;;
7969;SDS011;4030;52.362;9.206;2023-06-10T12:11:50;4.13;;;2.80;;
7969;SDS011;4030;52.362;9.206;2023-06-10T12:17:44;3.30;;;3.00;;
7969;SDS011;4030;52.362;9.206;2023-06-10T12:20:23;3.13;;;2.80;;
7969;SDS011;4030;52.362;9.206;2023-06-10T12:23:00;2.95;;;2.63;;
7969;SDS011;4030;52.362;9.206;2023-06-10T12:25:34;4.05;;;3.00;;
7969;SDS011;4030;52.362;9.206;2023-06-10T12:28:02;2.95;;;2.65;;
7969;SDS011;4030;52.362;9.206;2023-06-10T12:30:28;4.13;;;3.10;;
7969;SDS011;4030;52.362;9.206;2023-06-10T12:32:54;3.92;;;2.90;;
7969;SDS011;4030;52.362;9.206;2023-06-10T12:35:21;4.97;;;2.90;;
7969;SDS011;4030;52.362;9.206;2023-06-10T12:37:55;6.53;;;3.05;;
7969;SDS011;4030;52.362;9.206;2023-06-10T12:40:36;4.55;;;3.15;;
7969;SDS011;4030;52.362;9.206;2023-06-10T12:43:04;3.92;;;3.20;;
7969;SDS011;4030;52.362;9.206;2023-06-10T12:45:30;4.25;;;3.22;;
7969;SDS011;4030;52.362;9.206;2023-06-10T12:50:36;5.15;;;3.30;;
7969;SDS011;4030;52.362;9.206;2023-06-10T12:53:04;4.07;;;3.20;;
7969;SDS011;4030;52.362;9.206;2023-06-10T12:55:30;5.82;;;3.22;;
7969;SDS011;4030;52.362;9.206;2023-06-10T12:57:57;5.05;;;3.30;;
7969;SDS011;4030;52.362;9.206;2023-06-10T13:00:23;5.93;;;3.30;;
7969;SDS011;4030;52.362;9.206;2023-06-10T13:02:54;4.50;;;3.25;;
7969;SDS011;4030;52.362;9.206;2023-06-10T13:05:25;4.95;;;3.40;;
7969;SDS011;4030;52.362;9.206;2023-06-10T13:07:51;3.70;;;3.13;;
7969;SDS011;4030;52.362;9.206;2023-06-10T13:10:17;6.25;;;3.17;;
7969;SDS011;4030;52.362;9.206;2023-06-10T13:12:43;4.10;;;3.35;;
7969;SDS011;4030;52.362;9.206;2023-06-10T13:15:09;4.15;;;3.17;;
7969;SDS011;4030;52.362;9.206;2023-06-10T13:17:36;6.57;;;3.88;;
7969;SDS011;4030;52.362;9.206;2023-06-10T13:20:03;4.65;;;3.40;;
7969;SDS011;4030;52.362;9.206;2023-06-10T13:22:32;8.65;;;3.90;;
7969;SDS011;4030;52.362;9.206;2023-06-10T13:25:00;5.15;;;3.75;;
7969;SDS011;4030;52.362;9.206;2023-06-10T13:27:26;4.88;;;3.30;;
7969;SDS011;4030;52.362;9.206;2023-06-10T13:29:52;5.47;;;3.60;;
7969;SDS011;4030;52.362;9.206;2023-06-10T13:32:18;4.95;;;3.42;;
7969;SDS011;4030;52.362;9.206;2023-06-10T13:34:44;7.18;;;3.33;;
7969;SDS011;4030;52.362;9.206;2023-06-10T13:37:10;5.65;;;3.72;;
7969;SDS011;4030;52.362;9.206;2023-06-10T13:39:37;3.92;;;3.30;;
7969;SDS011;4030;52.362;9.206;2023-06-10T13:42:03;4.78;;;3.75;;
7969;SDS011;4030;52.362;9.206;2023-06-10T13:44:32;5.32;;;3.80;;
7969;SDS011;4030;52.362;9.206;2023-06-10T13:47:01;6.55;;;3.67;;
7969;SDS011;4030;52.362;9.206;2023-06-10T13:49:30;4.05;;;3.53;;
7969;SDS011;4030;52.362;9.206;2023-06-10T13:51:56;4.93;;;3.70;;
7969;SDS011;4030;52.362;9.206;2023-06-10T13:54:21;5.18;;;3.60;;
7969;SDS011;4030;52.362;9.206;2023-06-10T13:56:47;5.88;;;3.97;;
7969;SDS011;4030;52.362;9.206;2023-06-10T13:59:13;5.40;;;3.47;;
7969;SDS011;4030;52.362;9.206;2023-06-10T14:01:39;5.55;;;3.60;;
7969;SDS011;4030;52.362;9.206;2023-06-10T14:04:05;4.38;;;3.60;;
7969;SDS011;4030;52.362;9.206;2023-06-10T14:06:31;6.25;;;3.90;;
7969;SDS011;4030;52.362;9.206;2023-06-10T14:08:58;6.43;;;3.80;;
7969;SDS011;4030;52.362;9.206;2023-06-10T14:11:24;5.65;;;4.10;;
7969;SDS011;4030;52.362;9.206;2023-06-10T14:13:50;7.20;;;3.78;;
7969;SDS011;4030;52.362;9.206;2023-06-10T14:16:16;4.68;;;3.78;;
7969;SDS011;4030;52.362;9.206;2023-06-10T14:18:41;6.82;;;4.10;;
7969;SDS011;4030;52.362;9.206;2023-06-10T14:21:07;5.38;;;3.58;;
7969;SDS011;4030;52.362;9.206;2023-06-10T14:23:33;5.72;;;3.85;;
7969;SDS011;4030;52.362;9.206;2023-06-10T14:25:59;6.30;;;3.70;;
7969;SDS011;4030;52.362;9.206;2023-06-10T14:28:24;4.40;;;3.97;;
7969;SDS011;4030;52.362;9.206;2023-06-10T14:30:52;6.90;;;4.00;;
7969;SDS011;4030;52.362;9.206;2023-06-10T14:33:17;5.95;;;3.83;;
7969;SDS011;4030;52.362;9.206;2023-06-10T14:35:43;6.13;;;4.22;;
7969;SDS011;4030;52.362;9.206;2023-06-10T14:38:09;4.72;;;3.97;;
7969;SDS011;4030;52.362;9.206;2023-06-10T14:40:35;4.90;;;3.90;;
7969;SDS011;4030;52.362;9.206;2023-06-10T14:43:01;5.35;;;3.70;;
7969;SDS011;4030;52.362;9.206;2023-06-10T14:45:29;5.22;;;3.83;;
7969;SDS011;4030;52.362;9.206;2023-06-10T14:47:54;5.88;;;3.67;;
7969;SDS011;4030;52.362;9.206;2023-06-10T14:50:20;5.00;;;4.00;;
7969;SDS011;4030;52.362;9.206;2023-06-10T14:52:46;6.30;;;3.58;;
7969;SDS011;4030;52.362;9.206;2023-06-10T14:55:11;5.15;;;3.90;;
7969;SDS011;4030;52.362;9.206;2023-06-10T14:57:37;5.65;;;4.05;;
7969;SDS011;4030;52.362;9.206;2023-06-10T15:00:03;6.43;;;3.92;;
7969;SDS011;4030;52.362;9.206;2023-06-10T15:02:30;4.63;;;4.00;;
7969;SDS011;4030;52.362;9.206;2023-06-10T15:04:56;5.88;;;3.80;;
7969;SDS011;4030;52.362;9.206;2023-06-10T15:07:21;5.07;;;3.92;;
7969;SDS011;4030;52.362;9.206;2023-06-10T15:09:47;6.93;;;3.92;;
7969;SDS011;4030;52.362;9.206;2023-06-10T15:12:13;4.63;;;3.67;;
7969;SDS011;4030;52.362;9.206;2023-06-10T15:14:39;6.55;;;4.18;;
7969;SDS011;4030;52.362;9.206;2023-06-10T15:17:04;5.40;;;3.40;;
7969;SDS011;4030;52.362;9.206;2023-06-10T15:19:30;4.18;;;3.58;;
7969;SDS011;4030;52.362;9.206;2023-06-10T15:21:56;4.05;;;3.65;;
7969;SDS011;4030;52.362;9.206;2023-06-10T15:24:21;5.22;;;4.28;;
7969;SDS011;4030;52.362;9.206;2023-06-10T15:26:47;4.78;;;3.63;;
7969;SDS011;4030;52.362;9.206;2023-06-10T15:29:13;4.60;;;3.63;;
7969;SDS011;4030;52.362;9.206;2023-06-10T15:31:38;6.25;;;3.70;;
7969;SDS011;4030;52.362;9.206;2023-06-10T15:34:04;5.38;;;3.88;;
7969;SDS011;4030;52.362;9.206;2023-06-10T15:36:31;5.90;;;3.78;;
7969;SDS011;4030;52.362;9.206;2023-06-10T15:39:00;6.22;;;3.67;;